createdAt,value
2022-12-18T00:02:23.177Z,28.43
2022-12-18T00:05:11.395Z,26.87
2022-12-18T00:10:48.083Z,27.20
2022-12-18T00:16:26.721Z,29.00
2022-12-18T00:19:16.068Z,28.60
2022-12-18T00:24:51.808Z,27.40
2022-12-18T00:30:25.099Z,28.03
2022-12-18T00:36:04.268Z,28.13
2022-12-18T00:45:14.371Z,28.10
2022-12-18T00:48:02.746Z,28.83
2022-12-18T00:53:41.862Z,28.17
2022-12-18T01:05:07.811Z,28.63
2022-12-18T01:10:44.495Z,29.17
2022-12-18T01:16:24.631Z,28.67
2022-12-18T01:21:54.859Z,28.60
2022-12-18T01:24:44.001Z,29.93
2022-12-18T01:27:37.029Z,30.80
2022-12-18T01:33:15.660Z,30.00
2022-12-18T01:38:54.881Z,29.73
2022-12-18T01:42:01.827Z,29.47
2022-12-18T01:44:57.546Z,29.60
2022-12-18T01:50:37.928Z,28.97
2022-12-18T01:53:27.824Z,30.67
2022-12-18T02:01:49.778Z,31.13
2022-12-18T02:07:29.798Z,30.37
2022-12-18T02:10:21.735Z,30.33
2022-12-18T02:16:04.838Z,31.13
2022-12-18T02:21:40.161Z,33.53
2022-12-18T02:27:15.720Z,31.90
2022-12-18T02:32:57.597Z,30.57
2022-12-18T02:38:29.711Z,31.10
2022-12-18T02:41:19.417Z,30.97
2022-12-18T02:46:57.516Z,30.53
2022-12-18T02:49:49.540Z,32.40
2022-12-18T02:55:36.694Z,29.43
2022-12-18T03:01:14.270Z,28.83
2022-12-18T03:06:55.679Z,30.13
2022-12-18T03:12:34.773Z,30.33
2022-12-18T03:18:17.246Z,29.73
2022-12-18T03:23:49.660Z,30.53
2022-12-18T03:26:38.842Z,31.23
2022-12-18T03:32:18.168Z,30.67
2022-12-18T03:35:09.239Z,31.07
2022-12-18T03:37:58.094Z,32.57
2022-12-18T03:40:57.046Z,32.07
2022-12-18T03:46:33.211Z,32.70
2022-12-18T03:52:11.802Z,33.17
2022-12-18T03:55:08.096Z,30.77
2022-12-18T03:57:57.110Z,31.60
2022-12-18T04:00:45.846Z,32.00
2022-12-18T04:03:36.506Z,31.17
2022-12-18T04:09:06.371Z,32.00
2022-12-18T04:14:41.875Z,30.10
2022-12-18T04:20:18.841Z,31.43
2022-12-18T04:25:49.434Z,30.70
2022-12-18T04:29:05.673Z,30.73
2022-12-18T04:45:56.906Z,30.00
2022-12-18T05:25:42.497Z,32.10
2022-12-18T05:31:10.251Z,29.73
2022-12-18T05:36:47.158Z,27.57
2022-12-18T05:42:23.529Z,28.10
2022-12-18T05:45:12.986Z,28.07
2022-12-18T05:48:02.491Z,27.67
2022-12-18T05:50:52.335Z,27.67
2022-12-18T05:56:25.048Z,27.83
2022-12-18T06:01:54.156Z,27.20
2022-12-18T06:04:44.619Z,29.40
2022-12-18T06:07:33.359Z,30.40
2022-12-18T06:10:21.901Z,31.43
2022-12-18T06:15:58.245Z,31.37
2022-12-18T06:21:34.448Z,32.20
2022-12-18T06:24:23.953Z,30.93
2022-12-18T06:29:53.847Z,30.77
2022-12-18T06:32:42.840Z,29.33
2022-12-18T06:35:32.061Z,29.10
2022-12-18T06:41:03.923Z,27.73
2022-12-18T06:43:58.110Z,27.90
2022-12-18T06:49:28.803Z,29.07
2022-12-18T06:54:57.653Z,30.17
2022-12-18T06:57:46.766Z,28.77
2022-12-18T07:06:02.250Z,27.40
2022-12-18T07:11:37.363Z,27.73
2022-12-18T07:14:25.471Z,27.63
2022-12-18T07:20:08.079Z,29.10
2022-12-18T07:25:40.691Z,27.13
2022-12-18T07:31:16.512Z,27.10
2022-12-18T07:39:34.366Z,26.83
2022-12-18T07:42:34.154Z,27.30
2022-12-18T07:48:08.243Z,27.33
2022-12-18T07:53:44.818Z,27.57
2022-12-18T07:59:15.014Z,28.07
2022-12-18T08:02:05.078Z,27.57
2022-12-18T08:07:37.112Z,24.83
2022-12-18T08:13:17.787Z,24.20
2022-12-18T08:18:46.386Z,25.27
2022-12-18T08:24:24.370Z,24.20
2022-12-18T08:30:03.984Z,25.43
2022-12-18T08:32:54.903Z,24.83
2022-12-18T08:38:30.373Z,24.57
2022-12-18T08:41:19.812Z,25.40
2022-12-18T08:44:31.263Z,24.30
2022-12-18T08:47:19.561Z,24.60
2022-12-18T08:52:49.554Z,25.07
2022-12-18T08:55:38.663Z,25.63
2022-12-18T08:58:27.412Z,23.90
2022-12-18T09:01:18.226Z,23.53
2022-12-18T09:06:56.124Z,24.70
2022-12-18T09:12:30.955Z,23.33
2022-12-18T09:23:29.263Z,24.53
2022-12-18T09:28:59.213Z,24.43
2022-12-18T09:31:47.911Z,23.97
2022-12-18T09:37:18.084Z,23.57
2022-12-18T09:42:58.257Z,25.03
2022-12-18T09:48:44.777Z,24.77
2022-12-18T09:54:21.460Z,23.77
2022-12-18T09:59:59.181Z,25.07
2022-12-18T10:08:19.686Z,25.90
2022-12-18T10:14:21.364Z,23.80
2022-12-18T10:32:23.445Z,23.37
2022-12-18T10:38:08.924Z,24.97
2022-12-18T10:43:43.927Z,25.40
2022-12-18T10:49:30.956Z,25.23
2022-12-18T10:55:04.316Z,24.43
2022-12-18T11:11:09.839Z,25.53
2022-12-18T11:17:24.927Z,25.63
2022-12-18T11:23:09.623Z,26.20
2022-12-18T11:28:53.030Z,25.47
2022-12-18T11:31:41.468Z,25.23
2022-12-18T11:37:20.781Z,25.67
2022-12-18T11:42:59.413Z,25.20
2022-12-18T11:48:42.713Z,25.80
2022-12-18T11:54:17.209Z,25.77
2022-12-18T12:02:47.653Z,27.37
2022-12-18T12:08:38.827Z,26.43
2022-12-18T12:14:30.549Z,26.67
2022-12-18T12:17:24.221Z,26.10
2022-12-18T12:23:04.330Z,24.97
2022-12-18T12:28:48.918Z,25.73
2022-12-18T12:34:24.765Z,26.97
2022-12-18T12:40:40.902Z,25.20
2022-12-18T12:48:41.379Z,25.60
2022-12-18T12:54:18.366Z,26.63
2022-12-18T12:59:55.458Z,25.73
2022-12-18T13:05:41.887Z,26.77
2022-12-18T13:08:35.962Z,26.17
2022-12-18T13:12:00.451Z,24.53
2022-12-18T13:18:06.155Z,24.73
2022-12-18T13:23:48.464Z,26.10
2022-12-18T13:29:44.503Z,25.87
2022-12-18T13:32:32.993Z,26.77
2022-12-18T13:38:55.732Z,25.77
2022-12-18T13:44:40.289Z,25.07
2022-12-18T13:50:21.831Z,24.27
2022-12-18T13:53:18.748Z,25.17
2022-12-18T14:01:49.879Z,24.83
2022-12-18T14:07:23.382Z,24.97
2022-12-18T14:13:08.183Z,24.70
2022-12-18T14:16:01.556Z,25.07
2022-12-18T14:21:40.664Z,25.37
2022-12-18T14:27:27.832Z,23.47
2022-12-18T14:33:29.965Z,24.37
2022-12-18T14:36:21.267Z,24.60
2022-12-18T14:39:14.603Z,23.70
2022-12-18T14:50:21.331Z,25.33
2022-12-18T14:58:56.805Z,25.33
2022-12-18T15:04:33.081Z,25.30
2022-12-18T15:10:16.943Z,23.63
2022-12-18T15:16:20.260Z,23.80
2022-12-18T15:19:12.104Z,24.17
2022-12-18T15:22:06.575Z,21.53
2022-12-18T15:30:34.081Z,21.53
2022-12-18T15:36:27.072Z,23.30
2022-12-18T15:42:30.117Z,23.97
2022-12-18T15:48:15.743Z,22.00
2022-12-18T15:54:05.878Z,24.10
2022-12-18T15:57:29.690Z,25.80
2022-12-18T16:03:07.691Z,26.17
2022-12-18T16:08:48.089Z,25.43
2022-12-18T16:14:24.718Z,26.13
2022-12-18T16:17:15.917Z,25.47
2022-12-18T16:23:10.702Z,24.27
2022-12-18T16:28:48.587Z,26.30
2022-12-18T16:34:27.736Z,24.40
2022-12-18T16:39:59.669Z,24.20
2022-12-18T16:45:37.642Z,26.87
2022-12-18T16:48:27.271Z,24.60
2022-12-18T16:51:20.341Z,24.73
2022-12-18T16:56:58.397Z,24.27
2022-12-18T17:02:36.540Z,29.20
2022-12-18T17:08:14.200Z,27.50
2022-12-18T17:13:49.109Z,28.13
2022-12-18T17:16:37.410Z,27.07
2022-12-18T17:22:11.986Z,27.53
2022-12-18T17:27:48.790Z,27.70
2022-12-18T17:33:26.974Z,28.73
2022-12-18T17:39:05.953Z,28.77
2022-12-18T17:44:37.840Z,31.03
2022-12-18T17:50:09.209Z,32.47
2022-12-18T17:52:58.548Z,30.33
2022-12-18T17:58:45.932Z,32.13
2022-12-18T18:04:23.913Z,29.00
2022-12-18T18:10:27.969Z,29.80
2022-12-18T18:16:03.905Z,32.57
2022-12-18T18:21:42.406Z,31.57
2022-12-18T18:27:38.694Z,31.07
2022-12-18T18:33:12.324Z,28.70
2022-12-18T18:38:48.497Z,27.77
2022-12-18T18:44:26.665Z,29.83
2022-12-18T18:50:07.052Z,29.10
2022-12-18T18:55:43.571Z,28.50
2022-12-18T18:58:32.142Z,30.87
2022-12-18T19:04:05.471Z,27.93
2022-12-18T19:09:40.386Z,28.57
2022-12-18T19:12:47.273Z,28.83
2022-12-18T19:15:36.084Z,29.30
2022-12-18T19:18:24.292Z,28.97
2022-12-18T19:23:54.514Z,29.90
2022-12-18T19:29:28.530Z,29.47
2022-12-18T19:35:05.288Z,28.83
2022-12-18T19:40:45.351Z,27.80
2022-12-18T19:43:35.775Z,28.20
2022-12-18T19:46:24.985Z,28.20
2022-12-18T19:52:02.511Z,30.77
2022-12-18T19:57:39.303Z,28.63
2022-12-18T20:03:19.889Z,27.23
2022-12-18T20:06:09.195Z,29.47
2022-12-18T20:11:46.419Z,30.50
2022-12-18T20:17:17.307Z,30.37
2022-12-18T20:23:01.957Z,27.83
2022-12-18T20:28:42.820Z,28.80
2022-12-18T20:36:52.237Z,28.80
2022-12-18T20:42:28.362Z,29.20
2022-12-18T20:48:07.957Z,30.17
2022-12-18T20:56:43.756Z,29.67
2022-12-18T21:02:22.825Z,29.83
2022-12-18T21:08:04.189Z,29.70
2022-12-18T21:13:42.827Z,30.07
2022-12-18T21:16:31.417Z,31.07
2022-12-18T21:24:43.084Z,29.77
2022-12-18T21:27:31.819Z,27.33
2022-12-18T21:30:20.905Z,27.73
2022-12-18T21:38:45.664Z,28.63
2022-12-18T21:41:53.024Z,29.40
2022-12-18T21:47:35.987Z,28.60
2022-12-18T21:53:11.370Z,28.40
2022-12-18T21:58:57.012Z,27.33
2022-12-18T22:01:38.841Z,29.90
2022-12-18T22:04:27.938Z,27.70
2022-12-18T22:07:16.910Z,29.13
2022-12-18T22:10:06.092Z,29.27
2022-12-18T22:15:43.295Z,30.13
2022-12-18T22:18:31.793Z,28.87
2022-12-18T22:24:16.025Z,30.10
2022-12-18T22:27:04.066Z,31.37
2022-12-18T22:32:40.541Z,29.90
2022-12-18T22:35:29.912Z,30.30
2022-12-18T22:40:57.528Z,29.33
2022-12-18T22:43:47.135Z,29.80
2022-12-18T22:46:37.955Z,28.93
2022-12-18T22:49:26.961Z,29.87
2022-12-18T22:52:15.418Z,29.83
2022-12-18T22:57:54.730Z,29.80
2022-12-18T23:03:24.021Z,30.37
2022-12-18T23:06:12.601Z,30.73
2022-12-18T23:11:42.814Z,29.53
2022-12-18T23:17:14.317Z,29.63
2022-12-18T23:20:02.500Z,30.37
2022-12-18T23:25:41.270Z,31.10
2022-12-18T23:34:04.817Z,30.03
2022-12-18T23:39:34.402Z,28.27
2022-12-18T23:45:09.383Z,30.30
2022-12-18T23:47:57.178Z,29.50
2022-12-18T23:53:46.942Z,31.07
2022-12-18T23:56:36.180Z,28.10
